首页
METAR-TAF:

METAR-TAF

机场 :

Coeur d'Alene, 爱达荷州, 美国

纬度: 47-46N, 经度: 116-49W, 海拔: 707米

当前天气观测

该预报发布于1小时和6分钟前的23:56 UTC
风速3节,风向多变
温度 16°C
湿度 42%
气压 1017 hPa
能見度: 16.1公里
天空无云

METAR: KCOE 202356Z AUTO VRB03KT 10SM CLR 16/03 A3002 RMK AO2 SLP186 6//// T01610028 10178 20122 56010 PNO $

时间: 18:02 (01:02 UTC)

预报

该预报发布于1小时和42分钟前的23:20 UTC
预报有效从21日的 00点(UTC)到 21日的 24点(UTC)
风速8节,风向西转西南
能見度: 10公里
散云层高于7000英尺
多云层高于10000英尺
短暂存在
从 21日的 00点(UTC)到 21日的 02点(UTC)
能見度: 9.7公里
多云层高于7000英尺
阴天层高于10000英尺
小阵雨
从 21日的 0400点(UTC)
风速4节,风向南转南东
能見度: 10公里
少量云层高于10000英尺
从 21日的 1300点(UTC)
风速8节,风向
能見度: 9.7公里
少量云层高于100英尺
散云层高于15000英尺
多云层高于20000英尺
碎片雾
从 21日的 1500点(UTC)
风速11节,风向南转西南
能見度: 10公里
散云层高于12000英尺
多云层高于15000英尺
阴天层高于20000英尺
从 21日的 1900点(UTC)
风速12节,风向西南,有时为20节阵风
能見度: 10公里
多云层高于4500英尺
阴天层高于12000英尺

TAF: KCOE 202320Z 2100/2124 25008KT P6SM SCT070 BKN100 TEMPO 2100/2102 6SM -SHRA BKN070 OVC100 FM210400 16004KT P6SM FEW100 FM211300 18008KT 6SM BCFG FEW001 SCT150 BKN200 FM211500 20011KT P6SM SCT120 BKN150 OVC200 FM211900 22012G20KT P6SM BKN045 OVC120

超过4000个机场的气象观测和天气预报(METAR&TAF报告)。

可查询的气象台以黄色和红色小点在地图上表示。

将鼠标移到小点上方,可查看气象台名称。

然后点击查看天气观测和预报。

如需切换地图:点击带黑十字的绿色按钮放大地图;点击带横线的绿色按钮缩小地图;或者点击绿色箭头查看邻近地区的地图。


METAR-TAF: